createdAt,value
2017-12-16T00:07:57.757Z,27.52
2017-12-16T00:10:24.866Z,27.37
2017-12-16T00:12:51.417Z,30.95
2017-12-16T00:15:17.759Z,27.98
2017-12-16T00:17:44.990Z,26.05
2017-12-16T00:20:11.421Z,27.60
2017-12-16T00:22:41.844Z,27.48
2017-12-16T00:25:09.061Z,25.40
2017-12-16T00:27:36.176Z,27.75
2017-12-16T00:30:02.696Z,26.17
2017-12-16T00:32:29.076Z,25.10
2017-12-16T00:34:56.149Z,24.75
2017-12-16T00:37:26.588Z,28.20
2017-12-16T00:39:52.925Z,28.87
2017-12-16T00:42:19.514Z,25.62
2017-12-16T00:44:45.918Z,28.17
2017-12-16T00:47:12.461Z,27.48
2017-12-16T00:49:38.905Z,25.67
2017-12-16T00:52:05.245Z,25.23
2017-12-16T00:54:31.589Z,26.87
2017-12-16T00:56:57.989Z,23.73
2017-12-16T00:59:24.345Z,26.02
2017-12-16T01:01:50.726Z,28.20
2017-12-16T01:04:20.440Z,23.98
2017-12-16T01:06:46.843Z,30.05
2017-12-16T01:09:13.237Z,25.95
2017-12-16T01:11:39.668Z,25.12
2017-12-16T01:14:06.064Z,28.00
2017-12-16T01:16:32.422Z,28.90
2017-12-16T01:18:59.533Z,27.05
2017-12-16T01:21:26.043Z,27.25
2017-12-16T01:23:52.372Z,25.62
2017-12-16T01:26:18.736Z,28.17
2017-12-16T01:28:45.165Z,25.35
2017-12-16T01:31:12.352Z,26.83
2017-12-16T01:33:51.873Z,29.12
2017-12-16T01:36:30.561Z,24.10
2017-12-16T01:38:56.920Z,26.58
2017-12-16T01:41:23.337Z,28.60
2017-12-16T01:43:49.718Z,30.08
2017-12-16T01:46:16.063Z,27.60
2017-12-16T01:48:42.449Z,30.80
2017-12-16T01:51:08.884Z,25.27
2017-12-16T01:53:35.222Z,26.17
2017-12-16T01:56:01.568Z,32.75
2017-12-16T01:58:27.922Z,29.40
2017-12-16T02:00:54.357Z,26.55
2017-12-16T02:03:20.736Z,28.87
2017-12-16T02:05:48.185Z,32.85
2017-12-16T02:08:14.583Z,27.83
2017-12-16T02:10:41.137Z,26.83
2017-12-16T02:13:07.506Z,33.83
2017-12-16T02:15:33.940Z,29.45
2017-12-16T02:18:00.282Z,26.80
2017-12-16T02:20:26.613Z,33.60
2017-12-16T02:22:52.957Z,29.92
2017-12-16T02:25:19.420Z,30.42
2017-12-16T02:27:45.793Z,32.00
2017-12-16T02:30:12.270Z,35.30
2017-12-16T02:32:38.636Z,33.22
2017-12-16T02:35:06.049Z,34.35
2017-12-16T02:37:32.441Z,29.95
2017-12-16T02:39:58.820Z,28.87
2017-12-16T02:42:25.188Z,34.75
2017-12-16T02:44:51.877Z,32.47
2017-12-16T02:47:18.237Z,32.65
2017-12-16T02:49:44.728Z,34.42
2017-12-16T02:52:11.338Z,30.45
2017-12-16T02:54:38.245Z,37.30
2017-12-16T02:57:04.810Z,32.83
2017-12-16T02:59:31.205Z,36.63
2017-12-16T03:01:57.540Z,34.42
2017-12-16T03:04:23.966Z,33.88
2017-12-16T03:06:50.309Z,34.08
2017-12-16T03:09:17.378Z,30.50
2017-12-16T03:11:43.786Z,32.05
2017-12-16T03:14:10.224Z,36.38
2017-12-16T03:16:36.583Z,33.53
2017-12-16T03:19:03.213Z,34.00
2017-12-16T03:21:29.560Z,34.78
2017-12-16T03:23:56.009Z,37.72
2017-12-16T03:26:22.675Z,37.40
2017-12-16T03:28:49.081Z,32.90
2017-12-16T03:31:15.409Z,31.90
2017-12-16T03:33:41.736Z,33.95
2017-12-16T03:36:08.832Z,37.88
2017-12-16T03:38:35.197Z,34.22
2017-12-16T03:41:01.552Z,37.45
2017-12-16T03:43:28.641Z,36.70
2017-12-16T03:45:57.540Z,38.05
2017-12-16T03:48:24.784Z,38.03
2017-12-16T03:50:51.924Z,36.42
2017-12-16T03:53:18.288Z,38.75
2017-12-16T03:55:44.761Z,35.58
2017-12-16T03:58:11.269Z,39.90
2017-12-16T04:00:37.633Z,36.58
2017-12-16T04:03:08.380Z,39.35
2017-12-16T04:05:34.749Z,37.75
2017-12-16T04:08:01.830Z,44.75
2017-12-16T04:10:28.902Z,41.70
2017-12-16T04:12:55.213Z,40.97
2017-12-16T04:15:21.610Z,44.75
2017-12-16T04:17:48.462Z,40.22
2017-12-16T04:20:15.580Z,34.58
2017-12-16T04:22:42.805Z,44.85
2017-12-16T04:25:09.244Z,43.75
2017-12-16T04:27:35.620Z,41.00
2017-12-16T04:30:01.957Z,39.05
2017-12-16T04:32:28.294Z,45.20
2017-12-16T04:34:54.763Z,41.92
2017-12-16T04:37:21.848Z,35.63
2017-12-16T04:39:48.905Z,42.05
2017-12-16T04:42:15.361Z,43.67
2017-12-16T04:44:41.872Z,40.47
2017-12-16T04:47:08.252Z,43.70
2017-12-16T04:49:34.624Z,49.60
2017-12-16T04:52:01.676Z,36.20
2017-12-16T04:54:28.023Z,48.72
2017-12-16T04:56:55.096Z,49.67
2017-12-16T04:59:21.537Z,43.40
2017-12-16T05:01:48.081Z,40.85
2017-12-16T05:04:14.450Z,45.35
2017-12-16T05:06:40.908Z,48.03
2017-12-16T05:09:07.265Z,52.08
2017-12-16T05:11:33.574Z,45.78
2017-12-16T05:14:00.488Z,50.72
2017-12-16T05:16:26.821Z,52.28
2017-12-16T05:18:53.990Z,49.13
2017-12-16T05:21:20.325Z,44.97
2017-12-16T05:23:47.497Z,38.25
2017-12-16T05:26:14.002Z,47.65
2017-12-16T05:28:41.137Z,41.80
2017-12-16T05:31:07.562Z,45.75
2017-12-16T05:33:33.909Z,43.63
2017-12-16T05:36:00.980Z,40.42
2017-12-16T05:38:28.047Z,43.08
2017-12-16T05:40:55.260Z,42.53
2017-12-16T05:43:21.774Z,45.40
2017-12-16T05:45:48.117Z,41.88
2017-12-16T05:48:14.628Z,42.80
2017-12-16T05:50:40.988Z,36.85
2017-12-16T05:53:08.093Z,31.25
2017-12-16T05:55:37.406Z,28.02
2017-12-16T05:58:03.726Z,32.67
2017-12-16T06:00:30.057Z,27.83
2017-12-16T06:02:56.387Z,26.52
2017-12-16T06:05:22.707Z,27.10
2017-12-16T06:07:49.000Z,31.70
2017-12-16T06:10:16.428Z,24.80
2017-12-16T06:12:42.783Z,29.98
2017-12-16T06:15:09.209Z,34.38
2017-12-16T06:17:36.374Z,32.90
2017-12-16T06:20:02.717Z,33.58
2017-12-16T06:22:29.844Z,32.60
2017-12-16T06:24:56.176Z,30.98
2017-12-16T06:27:22.527Z,32.88
2017-12-16T06:29:48.852Z,33.97
2017-12-16T06:32:15.196Z,29.63
2017-12-16T06:34:41.531Z,31.62
2017-12-16T06:37:07.869Z,32.00
2017-12-16T06:39:34.393Z,33.50
2017-12-16T06:42:00.769Z,36.50
2017-12-16T06:44:27.160Z,35.15
2017-12-16T06:46:53.510Z,36.28
2017-12-16T06:49:19.980Z,34.42
2017-12-16T06:51:47.065Z,32.58
2017-12-16T06:54:13.389Z,33.92
2017-12-16T06:56:39.765Z,39.42
2017-12-16T06:59:06.955Z,33.15
2017-12-16T07:01:33.432Z,37.35
2017-12-16T07:04:02.778Z,42.17
2017-12-16T07:06:29.226Z,40.92
2017-12-16T07:08:55.617Z,41.10
2017-12-16T07:11:22.004Z,44.65
2017-12-16T07:13:48.333Z,46.75
2017-12-16T07:16:14.681Z,47.20
2017-12-16T07:18:41.117Z,45.28
2017-12-16T07:21:07.461Z,45.92
2017-12-16T07:23:33.993Z,42.58
2017-12-16T07:26:00.394Z,46.80
2017-12-16T07:28:26.736Z,47.13
2017-12-16T07:30:53.089Z,43.33
2017-12-16T07:33:19.496Z,46.63
2017-12-16T07:35:45.853Z,45.10
2017-12-16T07:38:12.187Z,49.83
2017-12-16T07:40:38.547Z,47.33
2017-12-16T07:43:04.975Z,50.00
2017-12-16T07:45:31.878Z,50.80
2017-12-16T07:47:58.203Z,44.47
2017-12-16T07:50:25.203Z,50.78
2017-12-16T07:52:52.317Z,49.53
2017-12-16T07:55:19.961Z,49.13
2017-12-16T07:57:46.289Z,48.95
2017-12-16T08:00:12.725Z,44.95
2017-12-16T08:02:39.065Z,48.10
2017-12-16T08:05:05.388Z,52.20
2017-12-16T08:07:31.698Z,48.63
2017-12-16T08:09:58.167Z,43.28
2017-12-16T08:12:24.620Z,50.22
2017-12-16T08:14:51.280Z,49.58
2017-12-16T08:17:17.643Z,54.88
2017-12-16T08:19:43.964Z,56.15
2017-12-16T08:22:10.302Z,48.58
2017-12-16T08:24:37.025Z,59.38
2017-12-16T08:27:03.420Z,50.50
2017-12-16T08:29:29.760Z,54.50
2017-12-16T08:31:56.719Z,49.17
2017-12-16T08:34:23.141Z,45.08
2017-12-16T08:36:49.674Z,51.13
2017-12-16T08:39:16.889Z,56.45
2017-12-16T08:41:43.972Z,62.15
2017-12-16T08:44:10.501Z,48.95
2017-12-16T08:46:36.840Z,46.00
2017-12-16T08:49:03.337Z,45.92
2017-12-16T08:51:29.685Z,46.80
2017-12-16T08:53:56.180Z,48.20
2017-12-16T08:56:23.244Z,55.63
2017-12-16T08:58:49.754Z,48.58
2017-12-16T09:01:16.116Z,51.28
2017-12-16T09:03:43.564Z,53.47
2017-12-16T09:06:09.976Z,47.28
2017-12-16T09:08:37.756Z,47.00
2017-12-16T09:11:04.867Z,50.55
2017-12-16T09:13:31.256Z,44.95
2017-12-16T09:15:58.755Z,45.33
2017-12-16T09:18:26.214Z,47.88
2017-12-16T09:20:52.578Z,46.53
2017-12-16T09:23:18.929Z,45.60
2017-12-16T09:25:45.353Z,46.65
2017-12-16T09:28:11.677Z,39.75
2017-12-16T09:30:40.105Z,39.20
2017-12-16T09:33:07.337Z,38.78
2017-12-16T09:35:33.772Z,40.30
2017-12-16T09:38:00.871Z,44.60
2017-12-16T09:40:27.284Z,39.95
2017-12-16T09:42:53.661Z,43.90
2017-12-16T09:45:19.991Z,37.35
2017-12-16T09:47:46.572Z,34.58
2017-12-16T09:50:12.912Z,36.65
2017-12-16T09:52:39.316Z,39.97
2017-12-16T09:55:05.659Z,42.85
2017-12-16T09:57:32.007Z,35.13
2017-12-16T09:59:58.342Z,37.28
2017-12-16T10:02:24.693Z,31.48
2017-12-16T10:04:51.100Z,31.20
2017-12-16T10:07:17.548Z,29.52
2017-12-16T10:09:43.884Z,31.50
2017-12-16T10:12:10.210Z,31.00
2017-12-16T10:14:36.539Z,25.20
2017-12-16T10:17:02.960Z,31.85
2017-12-16T10:19:29.291Z,26.65
2017-12-16T10:21:55.671Z,21.30
2017-12-16T10:24:22.054Z,29.40
2017-12-16T10:26:48.396Z,25.05
2017-12-16T10:29:15.022Z,27.55
2017-12-16T10:31:41.359Z,27.80
2017-12-16T10:34:07.697Z,24.92
2017-12-16T10:36:34.195Z,26.40
2017-12-16T10:39:01.332Z,21.15
2017-12-16T10:41:27.694Z,24.85
2017-12-16T10:43:54.036Z,26.50
2017-12-16T10:46:20.364Z,25.95
2017-12-16T10:48:46.700Z,28.45
2017-12-16T10:51:13.032Z,21.30
2017-12-16T10:53:39.370Z,20.88
2017-12-16T10:56:05.704Z,20.45
2017-12-16T10:58:32.267Z,23.20
2017-12-16T11:00:59.375Z,19.37
2017-12-16T11:03:26.050Z,20.02
2017-12-16T11:05:52.507Z,17.00
2017-12-16T11:08:19.389Z,16.10
2017-12-16T11:10:45.727Z,21.25
2017-12-16T11:13:12.460Z,19.25
2017-12-16T11:15:38.841Z,15.23
2017-12-16T11:18:05.378Z,19.87
2017-12-16T11:20:31.714Z,19.55
2017-12-16T11:22:58.043Z,16.60
2017-12-16T11:25:24.463Z,11.77
2017-12-16T11:27:50.824Z,13.65
2017-12-16T11:30:17.180Z,10.57
2017-12-16T11:32:43.556Z,16.58
2017-12-16T11:35:10.972Z,16.33
2017-12-16T11:37:37.414Z,17.08
2017-12-16T11:40:06.821Z,14.35
2017-12-16T11:42:34.501Z,15.68
2017-12-16T11:45:00.812Z,13.57
2017-12-16T11:47:27.129Z,18.83
2017-12-16T11:49:53.689Z,14.63
2017-12-16T11:52:22.923Z,15.07
2017-12-16T11:54:49.252Z,12.80
2017-12-16T11:57:15.592Z,9.93
2017-12-16T11:59:41.901Z,9.65
2017-12-16T12:02:09.012Z,9.77
2017-12-16T12:04:35.375Z,7.90
2017-12-16T12:07:01.734Z,9.90
2017-12-16T12:09:28.882Z,9.00
2017-12-16T12:11:58.997Z,8.77
2017-12-16T12:14:25.315Z,10.95
2017-12-16T12:16:55.499Z,11.00
2017-12-16T12:19:21.819Z,15.20
2017-12-16T12:21:48.229Z,11.82
2017-12-16T12:24:15.652Z,12.80
2017-12-16T12:26:41.777Z,10.27
2017-12-16T12:29:08.122Z,13.45
2017-12-16T12:31:35.012Z,9.32
2017-12-16T12:34:02.085Z,9.23
2017-12-16T12:36:28.234Z,9.50
2017-12-16T12:38:54.420Z,9.15
2017-12-16T12:41:20.560Z,12.07
2017-12-16T12:43:46.790Z,10.45
2017-12-16T12:46:13.697Z,12.88
2017-12-16T12:48:40.005Z,14.52
2017-12-16T12:51:06.331Z,13.30
2017-12-16T12:53:32.656Z,14.95
2017-12-16T12:55:59.005Z,8.52
2017-12-16T12:58:25.306Z,13.38
2017-12-16T13:00:51.672Z,8.55
2017-12-16T13:03:18.013Z,10.98
2017-12-16T13:05:44.320Z,8.57
2017-12-16T13:08:10.652Z,7.37
2017-12-16T13:10:37.051Z,8.57
2017-12-16T13:13:04.338Z,16.30
2017-12-16T13:15:31.388Z,11.15
2017-12-16T13:17:57.648Z,9.48
2017-12-16T13:20:23.779Z,10.48
2017-12-16T13:22:49.901Z,8.70
2017-12-16T13:25:17.814Z,13.30
2017-12-16T13:27:44.020Z,9.80
2017-12-16T13:30:10.899Z,12.68
2017-12-16T13:32:37.053Z,10.10
2017-12-16T13:35:07.805Z,11.18
2017-12-16T13:37:33.941Z,7.65
2017-12-16T13:40:00.059Z,11.32
2017-12-16T13:42:27.048Z,8.45
2017-12-16T13:44:53.917Z,11.25
2017-12-16T13:47:20.781Z,12.32
2017-12-16T13:49:51.239Z,8.02
2017-12-16T13:52:17.454Z,7.10
2017-12-16T13:54:43.574Z,8.10
2017-12-16T13:57:10.471Z,8.32
2017-12-16T13:59:36.600Z,8.88
2017-12-16T14:02:03.472Z,8.27
2017-12-16T14:07:01.522Z,7.10
2017-12-16T14:09:27.650Z,12.02
2017-12-16T14:11:53.830Z,8.60
2017-12-16T14:14:19.942Z,8.68
2017-12-16T14:16:46.097Z,10.00
2017-12-16T14:19:12.280Z,15.65
2017-12-16T14:21:41.852Z,9.57
2017-12-16T14:24:08.089Z,9.32
2017-12-16T14:26:34.225Z,13.80
2017-12-16T14:29:00.382Z,7.18
2017-12-16T14:31:26.560Z,7.53
2017-12-16T14:33:52.733Z,7.32
2017-12-16T14:36:18.882Z,6.70
2017-12-16T14:38:45.045Z,11.98
2017-12-16T14:41:12.158Z,6.10
2017-12-16T14:43:38.291Z,11.70
2017-12-16T14:46:04.542Z,8.70
2017-12-16T14:48:30.689Z,11.05
2017-12-16T14:50:56.828Z,6.72
2017-12-16T14:53:22.992Z,8.93
2017-12-16T14:55:49.607Z,9.93
2017-12-16T14:58:15.808Z,16.50
2017-12-16T15:00:47.135Z,7.93
2017-12-16T15:03:13.269Z,9.27
2017-12-16T15:05:39.404Z,6.03
2017-12-16T15:08:08.007Z,13.55
2017-12-16T15:10:36.198Z,6.47
2017-12-16T15:13:03.058Z,6.25
2017-12-16T15:15:29.221Z,14.38
2017-12-16T15:17:55.347Z,4.90
2017-12-16T15:20:21.503Z,6.10
2017-12-16T15:22:51.286Z,6.85
2017-12-16T15:25:17.410Z,13.32
2017-12-16T15:27:43.537Z,6.80
2017-12-16T15:30:10.400Z,7.95
2017-12-16T15:32:36.549Z,12.80
2017-12-16T15:35:02.703Z,14.02
2017-12-16T15:37:28.822Z,8.85
2017-12-16T15:39:57.092Z,10.50
2017-12-16T15:42:23.250Z,6.65
2017-12-16T15:44:49.395Z,9.48
2017-12-16T15:47:16.482Z,7.18
2017-12-16T15:49:42.620Z,7.35
2017-12-16T15:52:08.770Z,6.80
2017-12-16T15:54:34.917Z,12.70
2017-12-16T15:57:03.588Z,12.40
2017-12-16T15:59:30.464Z,11.18
2017-12-16T16:01:57.426Z,10.80
2017-12-16T16:04:23.571Z,20.45
2017-12-16T16:06:49.764Z,10.98
2017-12-16T16:09:15.940Z,9.65
2017-12-16T16:11:42.105Z,2.50
2017-12-16T16:14:15.240Z,6.80
2017-12-16T16:16:41.535Z,14.60
2017-12-16T16:19:07.681Z,11.88
2017-12-16T16:21:33.832Z,6.78
2017-12-16T16:23:59.981Z,9.98
2017-12-16T16:26:26.114Z,11.90
2017-12-16T16:28:58.205Z,8.35
2017-12-16T16:31:24.610Z,7.00
2017-12-16T16:33:50.747Z,9.20
2017-12-16T16:36:16.878Z,10.02
2017-12-16T16:38:43.045Z,7.18
2017-12-16T16:41:09.956Z,6.65
2017-12-16T16:43:36.133Z,10.45
2017-12-16T16:46:03.275Z,8.63
2017-12-16T16:48:29.776Z,8.40
2017-12-16T16:50:56.766Z,5.07
2017-12-16T16:53:22.944Z,9.82
2017-12-16T16:55:49.167Z,8.55
2017-12-16T16:58:15.331Z,5.07
2017-12-16T17:00:41.465Z,9.23
2017-12-16T17:03:07.678Z,5.80
2017-12-16T17:05:33.845Z,10.23
2017-12-16T17:08:04.286Z,6.80
2017-12-16T17:10:30.420Z,6.55
2017-12-16T17:16:06.046Z,6.68
2017-12-16T17:18:32.227Z,10.45
2017-12-16T17:20:58.374Z,6.20
2017-12-16T17:23:25.272Z,9.98
2017-12-16T17:25:55.350Z,15.48
2017-12-16T17:28:22.284Z,6.07
2017-12-16T17:30:48.429Z,8.27
2017-12-16T17:33:14.590Z,10.80
2017-12-16T17:35:40.731Z,10.68
2017-12-16T17:38:07.604Z,9.35
2017-12-16T17:40:40.711Z,6.82
2017-12-16T17:43:06.857Z,5.68
2017-12-16T17:45:32.992Z,10.80
2017-12-16T17:47:59.117Z,6.45
2017-12-16T17:50:26.007Z,14.48
2017-12-16T17:52:52.858Z,13.55
2017-12-16T17:55:19.011Z,12.60
2017-12-16T17:57:49.169Z,9.65
2017-12-16T18:00:15.366Z,6.80
2017-12-16T18:02:41.531Z,13.60
2017-12-16T18:05:07.669Z,11.52
2017-12-16T18:07:34.607Z,8.30
2017-12-16T18:10:00.734Z,10.23
2017-12-16T18:12:26.977Z,6.78
2017-12-16T18:14:53.148Z,11.77
2017-12-16T18:17:25.608Z,10.68
2017-12-16T18:19:51.761Z,7.68
2017-12-16T18:22:17.928Z,8.45
2017-12-16T18:24:44.872Z,8.32
2017-12-16T18:27:11.064Z,10.52
2017-12-16T18:29:37.230Z,9.63
2017-12-16T18:32:03.379Z,11.10
2017-12-16T18:34:33.232Z,14.77
2017-12-16T18:36:59.365Z,10.20
2017-12-16T18:39:25.578Z,6.80
2017-12-16T18:41:52.467Z,10.88
2017-12-16T18:44:19.426Z,8.02
2017-12-16T18:46:46.345Z,9.00
2017-12-16T18:49:18.330Z,10.15
2017-12-16T18:51:44.504Z,13.75
2017-12-16T18:54:10.678Z,10.32
2017-12-16T18:56:36.852Z,14.45
2017-12-16T18:59:02.993Z,8.35
2017-12-16T19:01:29.152Z,13.35
2017-12-16T19:03:55.307Z,12.65
2017-12-16T19:06:21.493Z,14.07
2017-12-16T19:08:50.796Z,9.23
2017-12-16T19:11:16.948Z,12.00
2017-12-16T19:13:43.118Z,10.70
2017-12-16T19:16:09.323Z,8.85
2017-12-16T19:18:35.601Z,12.32
2017-12-16T19:21:01.751Z,9.30
2017-12-16T19:23:27.922Z,7.95
2017-12-16T19:25:54.300Z,9.65
2017-12-16T19:28:26.843Z,7.57
2017-12-16T19:30:52.998Z,8.00
2017-12-16T19:33:19.264Z,14.52
2017-12-16T19:35:45.452Z,6.95
2017-12-16T19:38:11.596Z,12.73
2017-12-16T19:40:37.831Z,11.43
2017-12-16T19:43:04.049Z,9.73
2017-12-16T19:45:36.919Z,7.37
2017-12-16T19:48:03.153Z,13.65
2017-12-16T19:50:29.388Z,13.45
2017-12-16T19:52:55.582Z,10.27
2017-12-16T19:55:21.732Z,8.05
2017-12-16T19:57:47.860Z,11.63
2017-12-16T20:00:14.020Z,12.70
2017-12-16T20:02:45.233Z,15.45
2017-12-16T20:05:11.380Z,12.77
2017-12-16T20:07:37.496Z,21.87
2017-12-16T20:10:03.645Z,18.02
2017-12-16T20:12:29.785Z,15.88
2017-12-16T20:14:55.928Z,18.87
2017-12-16T20:17:22.097Z,16.80
2017-12-16T20:19:48.282Z,17.85
2017-12-16T20:22:14.449Z,15.57
2017-12-16T20:24:45.753Z,20.10
2017-12-16T20:27:12.943Z,17.33
2017-12-16T20:29:39.092Z,19.55
2017-12-16T20:32:05.261Z,24.12
2017-12-16T20:34:31.429Z,21.45
2017-12-16T20:36:57.614Z,19.33
2017-12-16T20:39:23.752Z,25.62
2017-12-16T20:41:56.652Z,24.83
2017-12-16T20:44:22.813Z,21.67
2017-12-16T20:46:48.956Z,19.17
2017-12-16T20:49:15.112Z,18.23
2017-12-16T20:51:41.258Z,19.27
2017-12-16T20:54:08.104Z,19.20
2017-12-16T20:56:34.252Z,24.92
2017-12-16T20:59:00.394Z,19.00
2017-12-16T21:01:30.427Z,23.90
2017-12-16T21:03:57.296Z,21.08
2017-12-16T21:06:23.428Z,17.55
2017-12-16T21:08:49.580Z,16.55
2017-12-16T21:11:15.706Z,17.45
2017-12-16T21:13:42.582Z,23.85
2017-12-16T21:16:08.733Z,23.45
2017-12-16T21:18:35.636Z,20.62
2017-12-16T21:21:04.594Z,17.62
2017-12-16T21:23:30.771Z,20.80
2017-12-16T21:25:56.909Z,18.00
2017-12-16T21:28:23.033Z,18.95
2017-12-16T21:30:49.183Z,19.02
2017-12-16T21:33:15.301Z,23.65
2017-12-16T21:35:41.476Z,21.23
2017-12-16T21:38:08.357Z,21.30
2017-12-16T21:40:39.932Z,19.75
2017-12-16T21:43:06.053Z,21.87
2017-12-16T21:45:33.270Z,23.30
2017-12-16T21:47:59.461Z,25.08
2017-12-16T21:50:26.505Z,28.48
2017-12-16T21:52:52.610Z,28.45
2017-12-16T21:55:18.766Z,25.23
2017-12-16T21:57:44.926Z,28.12
2017-12-16T22:00:11.205Z,23.15
2017-12-16T22:02:37.294Z,24.63
2017-12-16T22:05:03.477Z,24.92
2017-12-16T22:07:29.627Z,27.42
2017-12-16T22:09:55.789Z,26.12
2017-12-16T22:12:21.936Z,26.87
2017-12-16T22:14:48.088Z,28.65
2017-12-16T22:17:14.948Z,25.48
2017-12-16T22:19:47.893Z,29.02
2017-12-16T22:22:14.029Z,27.60
2017-12-16T22:24:40.913Z,29.05
2017-12-16T22:27:07.128Z,31.80
2017-12-16T22:29:33.226Z,30.50
2017-12-16T22:31:59.437Z,28.58
2017-12-16T22:34:25.564Z,32.58
2017-12-16T22:36:51.696Z,33.20
2017-12-16T22:39:18.584Z,27.80
2017-12-16T22:41:44.771Z,28.60
2017-12-16T22:44:10.924Z,31.12
2017-12-16T22:46:37.089Z,32.75
2017-12-16T22:49:03.975Z,31.20
2017-12-16T22:51:30.178Z,31.62
2017-12-16T22:53:56.341Z,30.12
2017-12-16T22:56:23.231Z,35.80
2017-12-16T22:58:49.396Z,35.40
2017-12-16T23:01:15.530Z,32.05
2017-12-16T23:03:42.405Z,28.55
2017-12-16T23:06:08.531Z,34.33
2017-12-16T23:08:34.668Z,31.85
2017-12-16T23:11:00.880Z,33.42
2017-12-16T23:13:27.775Z,34.15
2017-12-16T23:15:53.929Z,31.58
2017-12-16T23:18:20.240Z,31.33
2017-12-16T23:20:46.435Z,32.15
2017-12-16T23:23:12.601Z,30.62
2017-12-16T23:25:38.762Z,31.70
2017-12-16T23:28:05.705Z,34.50
2017-12-16T23:30:32.650Z,31.37
2017-12-16T23:33:01.682Z,30.33
2017-12-16T23:35:27.832Z,32.35
2017-12-16T23:37:54.016Z,32.08
2017-12-16T23:40:20.288Z,36.67
2017-12-16T23:42:46.484Z,34.42
2017-12-16T23:45:13.058Z,37.15
2017-12-16T23:47:39.255Z,38.22
2017-12-16T23:50:06.120Z,42.28
2017-12-16T23:52:32.249Z,40.85
2017-12-16T23:54:59.153Z,37.67
2017-12-16T23:57:25.340Z,35.45
2017-12-16T23:59:52.260Z,38.80
